Time;durP1;ratioP1;P1;durP2;ratioP2;P2;SDS_P1;SDS_P2;PMS_P1;PMS_P2;Temp;Humidity;BMP_temperature;BMP_pressure;BME280_temperature;BME280_humidity;BME280_pressure;Samples;Min_cycle;Max_cycle;Signal;HPM_P1;HPM_P2
2022/07/21 00:01:59;;;;;;;10.48;4.40;;;22.80;91.00;;;;;;4134844;28;20035;-83
2022/07/21 00:04:01;;;;;;;8.40;3.97;;;22.80;90.90;;;;;;4134510;28;20102;-82
2022/07/21 00:06:02;;;;;;;7.25;3.63;;;22.70;91.20;;;;;;4121696;28;20129;-83
2022/07/21 00:08:04;;;;;;;9.18;4.03;;;22.70;91.00;;;;;;4134658;28;20653;-82
2022/07/21 00:10:06;;;;;;;10.43;3.90;;;22.60;91.10;;;;;;4117221;28;20065;-82
2022/07/21 00:12:07;;;;;;;8.27;3.95;;;22.60;91.20;;;;;;4134773;28;20042;-83
2022/07/21 00:14:09;;;;;;;11.20;3.67;;;22.50;91.30;;;;;;4134448;28;20046;-82
2022/07/21 00:16:10;;;;;;;9.80;3.60;;;22.50;91.40;;;;;;4134190;28;20425;-83
2022/07/21 00:18:11;;;;;;;9.48;4.05;;;22.50;91.50;;;;;;4117058;28;20057;-82
2022/07/21 00:20:14;;;;;;;8.45;4.05;;;22.50;91.60;;;;;;4149239;28;20061;-82
2022/07/21 00:22:15;;;;;;;9.13;3.63;;;22.50;91.60;;;;;;4116874;28;20047;-82
2022/07/21 00:24:16;;;;;;;8.68;3.63;;;22.50;91.80;;;;;;4117069;28;20134;-83
2022/07/21 00:26:17;;;;;;;10.07;4.82;;;22.50;91.70;;;;;;4149398;28;20049;-82
2022/07/21 00:28:18;;;;;;;10.20;3.40;;;22.50;91.70;;;;;;4134465;28;20046;-83
2022/07/21 00:30:19;;;;;;;11.70;3.90;;;22.40;91.60;;;;;;4115939;28;20435;-82
2022/07/21 00:32:20;;;;;;;7.45;3.72;;;22.40;91.70;;;;;;4116918;28;20047;-83
2022/07/21 00:34:20;;;;;;;6.60;3.40;;;22.40;91.70;;;;;;4116739;28;20061;-82
2022/07/21 00:36:22;;;;;;;8.32;3.25;;;22.40;91.70;;;;;;4116769;28;20142;-82
2022/07/21 00:38:22;;;;;;;11.73;3.47;;;22.40;91.70;;;;;;4116750;28;20059;-82
2022/07/21 00:40:23;;;;;;;8.75;3.25;;;22.40;91.70;;;;;;4116607;28;20475;-83
2022/07/21 00:42:30;;;;;;;8.50;3.38;;;22.40;91.70;;;;;;4116536;28;20093;-82
2022/07/21 00:44:31;;;;;;;7.95;4.00;;;22.40;91.70;;;;;;4134012;28;20050;-82
2022/07/21 00:46:32;;;;;;;6.80;4.07;;;22.30;91.60;;;;;;4134114;28;20054;-82
2022/07/21 00:48:34;;;;;;;7.65;3.47;;;22.30;91.70;;;;;;4134325;28;20050;-82
2022/07/21 00:50:34;;;;;;;12.70;4.40;;;22.30;91.80;;;;;;4116190;28;20543;-83
2022/07/21 00:52:35;;;;;;;8.20;3.67;;;22.30;91.80;;;;;;4148997;28;20054;-82
2022/07/21 00:54:36;;;;;;;12.20;4.13;;;22.20;91.70;;;;;;4116487;28;20116;-82
2022/07/21 00:56:37;;;;;;;6.05;3.47;;;22.20;91.70;;;;;;4133726;28;20134;-82
2022/07/21 00:58:40;;;;;;;8.10;3.53;;;22.20;91.80;;;;;;4133672;28;20042;-82
2022/07/21 01:00:42;;;;;;;8.18;3.55;;;22.10;91.90;;;;;;4133199;28;20042;-82
2022/07/21 01:02:44;;;;;;;7.68;3.95;;;22.10;92.00;;;;;;4115912;28;20062;-82
2022/07/21 01:04:45;;;;;;;7.53;4.63;;;22.00;92.30;;;;;;4148775;28;20076;-82
2022/07/21 01:06:47;;;;;;;11.73;4.35;;;21.90;93.00;;;;;;4116358;28;20051;-83
2022/07/21 01:08:47;;;;;;;13.75;5.30;;;21.80;93.30;;;;;;4116154;28;20515;-82
2022/07/21 01:10:48;;;;;;;11.90;5.40;;;21.70;93.90;;;;;;4132846;28;20047;-83
2022/07/21 01:12:50;;;;;;;12.48;5.82;;;21.60;94.70;;;;;;4116056;28;20469;-83
2022/07/21 01:14:51;;;;;;;12.05;5.50;;;21.60;95.40;;;;;;4148696;28;20449;-83
2022/07/21 01:16:52;;;;;;;13.27;5.75;;;21.60;95.70;;;;;;4116125;28;20105;-83
2022/07/21 01:18:54;;;;;;;13.55;5.60;;;21.50;96.10;;;;;;4115727;28;20512;-83
2022/07/21 01:20:55;;;;;;;11.90;6.22;;;21.40;96.70;;;;;;4115945;28;20125;-83
2022/07/21 01:22:56;;;;;;;12.85;5.32;;;21.40;97.20;;;;;;4132879;28;20073;-83
2022/07/21 01:24:56;;;;;;;12.10;5.68;;;21.30;97.50;;;;;;4116074;28;20050;-82
2022/07/21 01:26:57;;;;;;;13.48;6.10;;;21.20;97.90;;;;;;4116045;28;20047;-82
2022/07/21 01:28:59;;;;;;;14.98;5.70;;;21.10;98.40;;;;;;4148025;28;20141;-83
2022/07/21 01:31:00;;;;;;;11.95;5.65;;;21.10;98.70;;;;;;4115676;28;20094;-84
2022/07/21 01:33:00;;;;;;;10.23;5.55;;;21.10;98.90;;;;;;4133476;28;20069;-83
2022/07/21 01:35:03;;;;;;;11.85;6.45;;;21.10;99.10;;;;;;4148270;28;20048;-83
2022/07/21 01:37:04;;;;;;;12.45;6.03;;;21.10;99.60;;;;;;4100321;29;20055;-83
2022/07/21 01:41:30;;;;;;;9.13;5.57;;;21.10;99.90;;;;;;4116388;28;20089;-83
2022/07/21 01:43:30;;;;;;;16.45;6.93;;;21.00;99.90;;;;;;4115881;28;20543;-83
2022/07/21 01:45:32;;;;;;;14.25;6.28;;;21.00;99.90;;;;;;4116297;28;20054;-82
2022/07/21 01:47:34;;;;;;;17.40;6.18;;;21.00;99.90;;;;;;4115553;28;20513;-82
2022/07/21 01:49:35;;;;;;;14.93;6.18;;;20.90;99.90;;;;;;4117265;28;20093;-83
2022/07/21 01:51:36;;;;;;;19.33;6.07;;;20.90;99.90;;;;;;4146982;28;20104;-83
2022/07/21 01:53:38;;;;;;;14.10;5.97;;;20.80;99.90;;;;;;4147845;28;20393;-83
2022/07/21 01:55:39;;;;;;;14.80;6.00;;;20.80;99.90;;;;;;4148039;28;20054;-83
2022/07/21 01:57:40;;;;;;;12.35;6.28;;;20.80;99.90;;;;;;4147517;28;20132;-82
2022/07/21 01:59:40;;;;;;;12.65;6.03;;;20.70;99.90;;;;;;4116993;28;20051;-83
2022/07/21 02:01:41;;;;;;;13.00;6.10;;;20.70;99.90;;;;;;4116717;28;20074;-83
2022/07/21 02:03:44;;;;;;;13.13;5.88;;;20.70;99.90;;;;;;4115490;28;20054;-83
2022/07/21 02:05:44;;;;;;;16.05;7.57;;;20.70;99.90;;;;;;4147522;28;20060;-84
2022/07/21 02:07:46;;;;;;;14.43;6.30;;;20.70;99.90;;;;;;4116617;28;20043;-84
2022/07/21 02:09:47;;;;;;;13.05;6.55;;;20.80;99.90;;;;;;4116460;28;20081;-82
2022/07/21 02:11:48;;;;;;;12.60;6.03;;;20.80;99.90;;;;;;4147774;28;20043;-83
2022/07/21 02:13:48;;;;;;;14.20;6.05;;;20.70;99.90;;;;;;4114984;28;20054;-83
2022/07/21 02:15:49;;;;;;;17.70;7.05;;;20.70;99.90;;;;;;4115212;28;20511;-83
2022/07/21 02:17:50;;;;;;;14.85;5.97;;;20.70;99.90;;;;;;4147405;28;20057;-82
2022/07/21 02:19:51;;;;;;;14.48;7.28;;;20.70;99.90;;;;;;4115120;28;20055;-83
2022/07/21 02:21:51;;;;;;;13.00;6.35;;;20.70;99.90;;;;;;4113858;28;20047;-83
2022/07/21 02:23:52;;;;;;;16.25;6.75;;;20.70;99.90;;;;;;4114582;28;20059;-82
2022/07/21 02:25:53;;;;;;;12.98;6.93;;;20.70;99.90;;;;;;4115545;28;20046;-83
2022/07/21 02:27:54;;;;;;;13.63;6.70;;;20.70;99.90;;;;;;4115740;28;20047;-83
2022/07/21 02:29:55;;;;;;;13.25;6.78;;;20.70;99.90;;;;;;4115838;28;20463;-82
2022/07/21 02:31:55;;;;;;;14.68;6.35;;;20.70;99.90;;;;;;4115670;28;20038;-82
2022/07/21 02:33:56;;;;;;;12.38;6.50;;;20.70;99.90;;;;;;4115899;28;20182;-83
2022/07/21 02:35:57;;;;;;;17.15;6.65;;;20.60;99.90;;;;;;4116023;28;20595;-83
2022/07/21 02:37:58;;;;;;;16.38;6.70;;;20.60;99.90;;;;;;4115213;28;20051;-83
2022/07/21 02:39:59;;;;;;;12.45;6.68;;;20.50;99.90;;;;;;4131578;28;20511;-82
2022/07/21 02:41:59;;;;;;;15.48;7.22;;;20.50;99.90;;;;;;4131595;28;20042;-82
2022/07/21 02:44:00;;;;;;;17.25;7.78;;;20.50;99.90;;;;;;4114671;28;20444;-82
2022/07/21 02:46:01;;;;;;;13.93;7.65;;;20.40;99.90;;;;;;4131786;28;20042;-82
2022/07/21 02:48:05;;;;;;;15.63;7.57;;;20.40;99.90;;;;;;4098895;28;20035;-83
2022/07/21 02:50:06;;;;;;;15.75;7.50;;;20.30;99.90;;;;;;4147103;28;20093;-83
2022/07/21 02:52:07;;;;;;;14.90;7.25;;;20.30;99.90;;;;;;4130868;28;20057;-83
2022/07/21 02:54:07;;;;;;;13.43;7.35;;;20.20;99.90;;;;;;4113995;28;20047;-83
2022/07/21 02:56:09;;;;;;;22.50;8.27;;;20.10;99.90;;;;;;4147397;28;20160;-83
2022/07/21 02:58:18;;;;;;;17.13;7.68;;;20.00;99.90;;;;;;4114820;28;20054;-83
2022/07/21 03:00:20;;;;;;;18.95;8.43;;;20.00;99.90;;;;;;4114913;28;20562;-83
2022/07/21 03:02:21;;;;;;;18.83;8.98;;;19.90;99.90;;;;;;4154562;28;20046;-82
2022/07/21 03:04:21;;;;;;;18.33;8.77;;;19.90;99.90;;;;;;4132229;28;20507;-83
2022/07/21 03:06:23;;;;;;;14.52;8.45;;;19.90;99.90;;;;;;4130441;28;20050;-83
2022/07/21 03:08:24;;;;;;;13.60;7.53;;;19.90;99.90;;;;;;4127731;28;20058;-83
2022/07/21 03:10:25;;;;;;;15.82;8.02;;;19.80;99.90;;;;;;4132078;28;20042;-83
2022/07/21 03:12:26;;;;;;;16.98;8.68;;;19.90;99.90;;;;;;4132066;28;20100;-83
2022/07/21 03:14:26;;;;;;;17.27;8.40;;;19.90;99.90;;;;;;4114401;28;20054;-83
2022/07/21 03:16:27;;;;;;;16.77;8.25;;;19.90;99.90;;;;;;4131308;28;20511;-83
2022/07/21 03:18:28;;;;;;;19.25;8.48;;;19.90;99.90;;;;;;4132105;28;20042;-83
2022/07/21 03:20:34;;;;;;;15.40;7.68;;;19.90;99.90;;;;;;4114318;28;20050;-83
2022/07/21 03:22:35;;;;;;;19.63;9.52;;;19.90;99.90;;;;;;4132046;28;20101;-83
2022/07/21 03:24:36;;;;;;;23.40;9.00;;;19.90;99.90;;;;;;4098488;29;20125;-82
2022/07/21 03:26:38;;;;;;;15.00;8.80;;;19.90;99.90;;;;;;4098707;29;20471;-82
2022/07/21 03:28:40;;;;;;;15.65;8.63;;;20.00;99.90;;;;;;4131854;28;20101;-82
2022/07/21 03:30:40;;;;;;;18.30;8.85;;;20.00;99.90;;;;;;4114586;28;20131;-82
2022/07/21 03:32:42;;;;;;;12.57;7.72;;;20.00;99.90;;;;;;4115009;28;20050;-83
2022/07/21 03:34:45;;;;;;;14.85;8.63;;;20.00;99.90;;;;;;4135004;28;20042;-83
2022/07/21 03:36:45;;;;;;;17.38;9.20;;;20.10;99.90;;;;;;4135170;28;20391;-83
2022/07/21 03:38:46;;;;;;;15.52;8.80;;;20.10;99.90;;;;;;4117667;28;20065;-82
2022/07/21 03:40:47;;;;;;;14.73;8.57;;;20.10;99.90;;;;;;4135124;28;20061;-83
2022/07/21 03:42:47;;;;;;;16.30;8.30;;;20.00;99.90;;;;;;4117152;28;20047;-83
2022/07/21 03:44:48;;;;;;;15.55;8.52;;;20.00;99.90;;;;;;4134750;28;20046;-83
2022/07/21 03:46:49;;;;;;;20.63;10.77;;;20.00;99.90;;;;;;4134646;28;20043;-83
2022/07/21 03:48:49;;;;;;;18.83;9.43;;;20.10;99.90;;;;;;4117161;28;20039;-83
2022/07/21 03:50:50;;;;;;;15.25;8.75;;;20.00;99.90;;;;;;4117150;28;20054;-83
2022/07/21 03:52:52;;;;;;;21.92;10.27;;;20.10;99.90;;;;;;4148721;28;20050;-83
2022/07/21 03:55:07;;;;;;;16.55;10.13;;;20.10;99.90;;;;;;4116732;28;20054;-83
2022/07/21 03:57:08;;;;;;;17.70;10.50;;;20.10;99.90;;;;;;4134528;28;20070;-82
2022/07/21 03:59:10;;;;;;;16.98;9.35;;;20.10;99.90;;;;;;4117175;28;20109;-83
2022/07/21 04:01:11;;;;;;;16.35;9.80;;;20.10;99.90;;;;;;4117073;28;20051;-83
2022/07/21 04:03:12;;;;;;;19.83;9.98;;;20.10;99.90;;;;;;4117011;28;20057;-83
2022/07/21 04:05:14;;;;;;;20.98;10.00;;;20.10;99.90;;;;;;4149269;28;20054;-83
2022/07/21 04:07:15;;;;;;;19.45;10.60;;;20.20;99.90;;;;;;4149605;28;20054;-82
2022/07/21 04:09:17;;;;;;;15.23;9.50;;;20.20;99.90;;;;;;4134395;28;20132;-82
2022/07/21 04:11:17;;;;;;;21.58;11.88;;;20.20;99.90;;;;;;4117669;28;20130;-83
2022/07/21 04:13:18;;;;;;;18.20;10.10;;;20.20;99.90;;;;;;4117173;28;20047;-83
2022/07/21 04:15:19;;;;;;;19.38;11.43;;;20.20;99.90;;;;;;4148686;28;20038;-83
2022/07/21 04:17:20;;;;;;;19.42;11.25;;;20.20;99.90;;;;;;4136390;28;20046;-83
2022/07/21 04:19:20;;;;;;;22.90;9.60;;;20.10;99.90;;;;;;4149784;28;20100;-83
2022/07/21 04:21:21;;;;;;;17.08;9.98;;;20.10;99.90;;;;;;4149240;28;20041;-83
2022/07/21 04:23:23;;;;;;;19.33;10.70;;;20.10;99.90;;;;;;4149314;28;20046;-83
2022/07/21 04:25:23;;;;;;;20.42;11.05;;;20.00;99.90;;;;;;4148892;28;20128;-83
2022/07/21 04:27:24;;;;;;;16.85;10.02;;;20.00;99.90;;;;;;4116668;28;20109;-83
2022/07/21 04:29:25;;;;;;;19.95;9.82;;;19.90;99.90;;;;;;4134274;28;20479;-83
2022/07/21 04:31:26;;;;;;;19.90;10.05;;;19.90;99.90;;;;;;4116644;28;20090;-83
2022/07/21 04:33:26;;;;;;;18.27;10.35;;;19.90;99.90;;;;;;4134092;28;20450;-83
2022/07/21 04:35:28;;;;;;;18.17;10.55;;;19.80;99.90;;;;;;4116512;28;20053;-83
2022/07/21 04:37:29;;;;;;;19.83;12.13;;;19.80;99.90;;;;;;4134186;28;20372;-83
2022/07/21 04:39:31;;;;;;;20.33;11.07;;;19.80;99.90;;;;;;4133859;28;20125;-83
2022/07/21 04:41:32;;;;;;;19.25;11.45;;;19.80;99.90;;;;;;4133971;28;20082;-83
2022/07/21 04:43:33;;;;;;;18.80;10.20;;;19.80;99.90;;;;;;4116194;28;20043;-83
2022/07/21 04:45:34;;;;;;;20.60;11.57;;;19.80;99.90;;;;;;4116011;28;20468;-83
2022/07/21 04:47:52;;;;;;;22.33;11.70;;;19.70;99.90;;;;;;4116752;28;20155;-82
2022/07/21 04:49:53;;;;;;;22.63;11.07;;;19.80;99.90;;;;;;4116849;28;20073;-82
2022/07/21 04:51:54;;;;;;;21.23;11.00;;;19.70;99.90;;;;;;4133908;28;20035;-83
2022/07/21 04:53:55;;;;;;;18.92;10.77;;;19.80;99.90;;;;;;4132740;28;20050;-82
2022/07/21 04:55:56;;;;;;;22.52;11.82;;;19.80;99.90;;;;;;4116014;28;20057;-82
2022/07/21 04:57:59;;;;;;;21.30;12.00;;;19.90;99.90;;;;;;4133611;28;20070;-82
2022/07/21 05:00:02;;;;;;;21.35;12.48;;;19.90;99.90;;;;;;4136264;28;20046;-83
2022/07/21 05:02:03;;;;;;;19.95;12.13;;;19.90;99.90;;;;;;4135724;28;20074;-82
2022/07/21 05:04:05;;;;;;;23.05;11.93;;;20.00;99.90;;;;;;4133509;28;20057;-82
2022/07/21 05:06:06;;;;;;;20.50;11.68;;;20.00;99.90;;;;;;4132721;28;20050;-83
2022/07/21 05:08:07;;;;;;;18.85;11.65;;;20.00;99.90;;;;;;4133059;28;20050;-82
2022/07/21 05:10:10;;;;;;;26.10;12.88;;;20.10;99.90;;;;;;4158350;28;20056;-82
2022/07/21 05:12:11;;;;;;;20.80;12.65;;;20.10;99.90;;;;;;4133246;28;20495;-83
2022/07/21 05:14:13;;;;;;;22.02;12.43;;;20.10;99.90;;;;;;4133994;28;20046;-83
2022/07/21 05:16:13;;;;;;;20.13;12.52;;;20.20;99.90;;;;;;4115736;28;20133;-83
2022/07/21 05:18:14;;;;;;;20.42;13.32;;;20.20;99.90;;;;;;4115841;28;20120;-83
2022/07/21 05:20:15;;;;;;;22.70;13.88;;;20.20;99.90;;;;;;4115490;28;20153;-83
2022/07/21 05:22:19;;;;;;;23.33;13.95;;;20.30;99.90;;;;;;4133276;28;20082;-83
2022/07/21 05:24:20;;;;;;;22.85;12.35;;;20.40;99.90;;;;;;4132788;28;20053;-83
2022/07/21 05:26:22;;;;;;;21.02;13.00;;;20.40;99.90;;;;;;4133554;28;20052;-83
2022/07/21 05:28:22;;;;;;;21.27;12.98;;;20.40;99.90;;;;;;4115758;28;20546;-82
2022/07/21 05:30:23;;;;;;;21.05;12.95;;;20.30;99.90;;;;;;4115573;28;20043;-83
2022/07/21 05:32:24;;;;;;;20.73;12.80;;;20.30;99.90;;;;;;4115943;28;20066;-83
2022/07/21 05:34:26;;;;;;;21.92;13.15;;;20.30;99.90;;;;;;4143182;28;20124;-82
2022/07/21 05:36:26;;;;;;;24.08;12.45;;;20.30;99.90;;;;;;4122081;28;20046;-82
2022/07/21 05:38:27;;;;;;;21.42;12.57;;;20.20;99.90;;;;;;4119107;28;20143;-83
2022/07/21 05:40:28;;;;;;;21.23;12.50;;;20.20;99.90;;;;;;4129279;28;20101;-83
2022/07/21 05:42:31;;;;;;;17.27;11.00;;;20.20;99.90;;;;;;4132466;28;20083;-83
2022/07/21 05:44:31;;;;;;;19.27;12.52;;;20.20;99.90;;;;;;4143936;28;20053;-83
2022/07/21 05:46:33;;;;;;;20.60;11.98;;;20.20;99.90;;;;;;4133177;28;20046;-82
2022/07/21 05:48:35;;;;;;;19.13;12.80;;;20.20;99.90;;;;;;4115938;28;20058;-83
2022/07/21 05:50:36;;;;;;;20.38;12.50;;;20.10;99.90;;;;;;4132867;28;20046;-83
2022/07/21 05:52:37;;;;;;;22.00;12.10;;;20.10;99.90;;;;;;4133052;28;20050;-83
2022/07/21 05:54:39;;;;;;;17.63;11.73;;;20.10;99.90;;;;;;4133056;28;20069;-83
2022/07/21 05:56:40;;;;;;;21.40;12.43;;;20.10;99.90;;;;;;4144573;28;20141;-83
2022/07/21 05:58:41;;;;;;;18.38;11.38;;;20.10;99.90;;;;;;4122144;28;20050;-83
2022/07/21 06:00:42;;;;;;;17.50;11.45;;;20.10;99.90;;;;;;4108326;28;20539;-83
2022/07/21 06:02:44;;;;;;;22.83;11.70;;;20.10;99.90;;;;;;4140778;28;20061;-84
2022/07/21 06:04:45;;;;;;;20.45;12.38;;;20.10;99.90;;;;;;4132530;28;20546;-83
2022/07/21 06:06:45;;;;;;;19.58;12.38;;;20.00;99.90;;;;;;4128082;28;20054;-83
2022/07/21 06:08:47;;;;;;;19.65;11.50;;;20.00;99.90;;;;;;4132621;28;20438;-82
2022/07/21 06:10:49;;;;;;;20.60;12.18;;;20.00;99.90;;;;;;4099758;29;20090;-83
2022/07/21 06:12:50;;;;;;;19.80;12.48;;;20.00;99.90;;;;;;4099781;28;20055;-83
2022/07/21 06:14:50;;;;;;;20.70;11.65;;;20.10;99.90;;;;;;4132950;28;20050;-83
2022/07/21 06:16:51;;;;;;;20.58;12.70;;;20.00;99.90;;;;;;4132822;28;20050;-83
2022/07/21 06:18:52;;;;;;;19.80;12.20;;;20.10;99.90;;;;;;4132524;28;20054;-83
2022/07/21 06:20:53;;;;;;;17.88;12.50;;;20.10;99.90;;;;;;4115293;28;20053;-83
2022/07/21 06:22:54;;;;;;;20.20;12.75;;;20.10;99.90;;;;;;4114447;28;20542;-83
2022/07/21 06:24:55;;;;;;;16.95;11.60;;;20.10;99.90;;;;;;4132526;28;20046;-83
2022/07/21 06:26:57;;;;;;;19.85;11.90;;;20.10;99.90;;;;;;4132925;28;20765;-84
2022/07/21 06:28:59;;;;;;;18.23;11.52;;;20.10;99.90;;;;;;4148109;28;20104;-84
2022/07/21 06:30:59;;;;;;;17.60;11.50;;;20.10;99.90;;;;;;4133614;28;20105;-85
2022/07/21 06:33:00;;;;;;;16.33;10.80;;;20.10;99.90;;;;;;4132500;28;20042;-84
2022/07/21 06:35:01;;;;;;;15.65;11.25;;;20.20;99.90;;;;;;4132828;28;20054;-85
2022/07/21 06:37:01;;;;;;;20.05;12.77;;;20.20;99.90;;;;;;4131708;28;20101;-85
2022/07/21 06:39:03;;;;;;;21.13;12.43;;;20.20;99.90;;;;;;4131927;28;20142;-84
2022/07/21 06:41:04;;;;;;;19.42;11.98;;;20.20;99.90;;;;;;4132249;28;20086;-85
2022/07/21 06:43:04;;;;;;;17.40;11.70;;;20.10;99.90;;;;;;4114655;28;20051;-85
2022/07/21 06:45:06;;;;;;;20.30;11.85;;;20.10;99.90;;;;;;4132321;28;20511;-84
2022/07/21 06:47:07;;;;;;;19.45;12.13;;;20.10;99.90;;;;;;4132196;28;20097;-85
2022/07/21 06:49:07;;;;;;;17.98;12.13;;;20.00;99.90;;;;;;4132005;28;20438;-84
2022/07/21 06:51:08;;;;;;;20.95;13.48;;;20.00;99.90;;;;;;4115022;28;20046;-84
2022/07/21 06:53:09;;;;;;;21.52;11.63;;;20.00;99.90;;;;;;4115051;28;20062;-85
2022/07/21 06:55:10;;;;;;;19.52;11.27;;;20.00;99.90;;;;;;4148027;28;20105;-83
2022/07/21 06:57:13;;;;;;;16.08;10.93;;;20.00;99.90;;;;;;4115174;28;20058;-85
2022/07/21 06:59:14;;;;;;;19.30;12.48;;;20.00;99.90;;;;;;4132630;28;20093;-86
2022/07/21 07:01:16;;;;;;;19.30;11.43;;;20.00;99.90;;;;;;4115138;28;20046;-86
2022/07/21 07:03:18;;;;;;;18.13;11.60;;;20.00;99.90;;;;;;4134160;28;20054;-87
2022/07/21 07:05:19;;;;;;;16.63;11.60;;;20.00;99.90;;;;;;4119723;28;20480;-88
2022/07/21 07:07:20;;;;;;;18.08;11.65;;;20.00;99.90;;;;;;4120060;28;20053;-88
2022/07/21 07:09:20;;;;;;;22.67;11.40;;;20.10;99.90;;;;;;4122626;28;20141;-88
2022/07/21 07:11:21;;;;;;;19.33;11.77;;;20.10;99.90;;;;;;4124120;28;20070;-88
2022/07/21 07:13:22;;;;;;;16.90;10.95;;;20.20;99.90;;;;;;4125069;28;20534;-88
2022/07/21 07:15:24;;;;;;;19.85;11.77;;;20.20;99.90;;;;;;4121787;28;20046;-88
2022/07/21 07:17:24;;;;;;;19.25;11.45;;;20.20;99.90;;;;;;4107764;29;20055;-88
2022/07/21 07:19:26;;;;;;;21.15;12.90;;;20.30;99.90;;;;;;4106346;28;20065;-89
2022/07/21 07:21:27;;;;;;;22.45;12.30;;;20.30;99.90;;;;;;4121730;28;20042;-87
2022/07/21 07:23:28;;;;;;;18.13;11.15;;;20.30;99.90;;;;;;4121475;28;20446;-88
2022/07/21 07:25:28;;;;;;;19.67;12.48;;;20.30;99.90;;;;;;4121953;28;20043;-88
2022/07/21 07:27:30;;;;;;;19.05;12.45;;;20.30;99.90;;;;;;4144341;28;20052;-87
2022/07/21 07:29:31;;;;;;;22.70;13.80;;;20.30;99.90;;;;;;4154235;28;20038;-86
2022/07/21 07:31:33;;;;;;;18.92;13.00;;;20.30;99.90;;;;;;4154600;28;20042;-87
2022/07/21 07:33:34;;;;;;;21.23;13.52;;;20.20;99.90;;;;;;4154458;28;20125;-87
2022/07/21 07:35:37;;;;;;;21.35;13.75;;;20.20;99.90;;;;;;4153812;28;20056;-87
2022/07/21 07:37:39;;;;;;;21.40;13.45;;;20.20;99.90;;;;;;4154084;28;20042;-86
2022/07/21 07:39:41;;;;;;;25.33;14.60;;;20.20;99.90;;;;;;4169816;28;20129;-87
2022/07/21 07:41:42;;;;;;;24.30;14.43;;;20.20;99.90;;;;;;4154196;28;20048;-87
2022/07/21 07:43:44;;;;;;;22.75;13.90;;;20.10;99.90;;;;;;4155185;28;20049;-87
2022/07/21 07:45:45;;;;;;;23.77;13.70;;;20.10;99.90;;;;;;4154621;28;20569;-87
2022/07/21 07:47:46;;;;;;;22.00;14.20;;;20.10;99.90;;;;;;4154806;28;20042;-88
2022/07/21 07:49:49;;;;;;;27.13;14.43;;;20.10;99.90;;;;;;4161940;28;20042;-88
2022/07/21 07:51:49;;;;;;;23.17;14.23;;;20.10;99.90;;;;;;4158385;28;20441;-87
2022/07/21 07:53:51;;;;;;;22.10;14.95;;;20.10;99.90;;;;;;4137705;28;20046;-87
2022/07/21 07:55:52;;;;;;;19.55;12.95;;;20.00;99.90;;;;;;4123398;28;20051;-89
2022/07/21 07:57:53;;;;;;;19.55;12.95;;;20.00;99.90;;;;;;4124163;28;20133;-88
2022/07/21 07:59:53;;;;;;;19.85;12.65;;;19.90;99.90;;;;;;4137164;28;20045;-89
2022/07/21 08:01:55;;;;;;;19.75;13.48;;;19.90;99.90;;;;;;4133041;28;20121;-87
2022/07/21 08:03:56;;;;;;;22.08;14.07;;;19.90;99.90;;;;;;4121986;28;20050;-87
2022/07/21 08:06:03;;;;;;;20.52;13.25;;;19.90;99.90;;;;;;4121608;28;20042;-87
2022/07/21 08:08:05;;;;;;;20.63;13.45;;;19.90;99.90;;;;;;4089137;29;20050;-83
2022/07/21 08:10:07;;;;;;;19.67;13.20;;;19.90;99.90;;;;;;4129211;28;20057;-84
2022/07/21 08:12:11;;;;;;;20.75;13.35;;;19.90;99.90;;;;;;4134645;28;20074;-83
2022/07/21 08:14:14;;;;;;;19.90;12.15;;;20.00;99.90;;;;;;4135448;28;20054;-83
2022/07/21 08:16:15;;;;;;;22.27;13.85;;;20.00;99.90;;;;;;4132943;28;20047;-83
2022/07/21 08:18:18;;;;;;;21.70;12.88;;;20.10;99.90;;;;;;4130430;28;20384;-83
2022/07/21 08:20:19;;;;;;;24.10;14.23;;;20.10;99.90;;;;;;4128033;28;20043;-83
2022/07/21 08:22:21;;;;;;;18.10;13.35;;;20.10;99.90;;;;;;4128403;28;20127;-83
2022/07/21 08:24:23;;;;;;;19.60;13.43;;;20.50;99.90;;;;;;4128089;28;20061;-83
2022/07/21 08:26:24;;;;;;;16.70;11.98;;;20.30;99.90;;;;;;4130918;28;20081;-83
2022/07/21 08:28:26;;;;;;;19.48;12.93;;;20.30;99.90;;;;;;4124969;28;20577;-83
2022/07/21 08:30:32;;;;;;;19.67;12.85;;;20.30;99.90;;;;;;4122747;28;20050;-83
2022/07/21 08:32:41;;;;;;;21.98;12.10;;;20.40;99.90;;;;;;4122794;28;20043;-83
2022/07/21 08:34:44;;;;;;;21.95;12.55;;;20.40;99.90;;;;;;4121145;28;20591;-83
2022/07/21 08:36:46;;;;;;;21.23;11.93;;;20.40;99.90;;;;;;4104718;29;20047;-83
2022/07/21 08:38:47;;;;;;;17.95;11.43;;;20.40;99.90;;;;;;4122830;28;20078;-83
2022/07/21 08:40:50;;;;;;;19.88;12.55;;;20.40;99.90;;;;;;4124293;28;20043;-83
2022/07/21 08:42:52;;;;;;;19.92;13.10;;;20.50;99.90;;;;;;4123692;28;20455;-83
2022/07/21 08:44:54;;;;;;;21.33;12.60;;;20.50;99.90;;;;;;4124861;28;20488;-83
2022/07/21 08:46:57;;;;;;;17.73;12.07;;;20.60;99.90;;;;;;4126076;28;20070;-83
2022/07/21 08:48:59;;;;;;;18.58;12.50;;;20.60;99.90;;;;;;4140632;28;20050;-83
2022/07/21 08:51:00;;;;;;;20.05;12.80;;;20.70;99.90;;;;;;4142908;28;20046;-83
2022/07/21 08:53:03;;;;;;;20.33;12.85;;;20.80;99.90;;;;;;4139853;28;20054;-83
2022/07/21 08:55:06;;;;;;;22.33;13.57;;;20.80;99.90;;;;;;4140265;28;20051;-83
2022/07/21 08:57:08;;;;;;;19.38;13.02;;;20.90;99.90;;;;;;4155066;28;20046;-83
2022/07/21 08:59:10;;;;;;;21.95;12.70;;;20.90;99.90;;;;;;4139229;28;20479;-83
2022/07/21 09:01:17;;;;;;;20.73;12.77;;;21.00;99.90;;;;;;4138887;28;20395;-83
2022/07/21 09:03:21;;;;;;;20.08;12.93;;;21.00;99.90;;;;;;4140436;28;20053;-83
2022/07/21 09:05:22;;;;;;;20.35;13.55;;;21.00;99.90;;;;;;4138299;28;20055;-84
2022/07/21 09:07:23;;;;;;;24.38;13.27;;;21.00;99.90;;;;;;4138505;28;20042;-83
2022/07/21 09:09:28;;;;;;;24.75;14.00;;;21.10;99.90;;;;;;4141356;28;20073;-83
2022/07/21 09:11:31;;;;;;;22.17;13.95;;;21.20;99.90;;;;;;4140892;28;20061;-83
2022/07/21 09:13:31;;;;;;;21.88;13.57;;;21.20;99.90;;;;;;4141673;28;20089;-83
2022/07/21 09:15:33;;;;;;;23.60;14.15;;;21.20;99.90;;;;;;4155497;28;20046;-83
2022/07/21 09:17:35;;;;;;;22.45;14.10;;;21.20;99.90;;;;;;4138086;28;20065;-83
2022/07/21 09:19:38;;;;;;;21.13;13.90;;;21.20;99.90;;;;;;4137382;28;20042;-82
2022/07/21 09:21:39;;;;;;;22.00;13.82;;;21.20;99.90;;;;;;4137248;28;20077;-82
2022/07/21 09:23:40;;;;;;;21.38;14.07;;;21.10;99.90;;;;;;4136634;28;20427;-83
2022/07/21 09:25:48;;;;;;;24.10;13.55;;;21.10;99.90;;;;;;4135943;28;20053;-83
2022/07/21 09:28:05;;;;;;;19.20;13.48;;;21.10;99.90;;;;;;4135867;28;20077;-82
2022/07/21 09:30:10;;;;;;;21.38;13.60;;;21.10;99.90;;;;;;4137438;28;20050;-83
2022/07/21 09:32:31;;;;;;;24.00;15.07;;;21.10;99.90;;;;;;4150264;28;20273;-83
2022/07/21 09:34:35;;;;;;;19.83;12.82;;;21.10;99.90;;;;;;4119269;28;20559;-82
2022/07/21 09:36:37;;;;;;;21.48;15.02;;;21.20;99.90;;;;;;4151069;28;20129;-83
2022/07/21 09:38:44;;;;;;;22.48;15.05;;;21.20;99.90;;;;;;4151365;28;20693;-83
2022/07/21 09:40:49;;;;;;;20.73;14.15;;;21.20;99.90;;;;;;4153150;28;20558;-83
2022/07/21 09:42:51;;;;;;;20.42;13.98;;;21.20;99.90;;;;;;4137086;28;20138;-83
2022/07/21 09:44:59;;;;;;;24.83;15.10;;;21.50;99.90;;;;;;4151376;28;20105;-84
2022/07/21 09:47:14;;;;;;;23.27;14.57;;;21.70;99.90;;;;;;4131962;28;20078;-83
2022/07/21 09:49:15;;;;;;;24.83;15.75;;;21.90;99.90;;;;;;4103115;28;20090;-84
2022/07/21 09:51:30;;;;;;;23.75;15.27;;;22.20;99.90;;;;;;4100790;29;20055;-84
2022/07/21 09:54:07;;;;;;;28.08;17.75;;;22.30;99.90;;;;;;4102216;29;20055;-83
2022/07/21 09:56:08;;;;;;;28.13;17.52;;;22.30;99.90;;;;;;4102620;29;20047;-83
2022/07/21 09:58:08;;;;;;;31.30;17.52;;;22.30;99.90;;;;;;4086702;29;20054;-84
2022/07/21 10:00:16;;;;;;;26.05;17.92;;;22.30;99.90;;;;;;4086413;29;20048;-84
2022/07/21 10:02:31;;;;;;;30.67;18.85;;;22.40;99.90;;;;;;4085305;29;20056;-84
2022/07/21 10:04:35;;;;;;;33.78;20.05;;;22.40;99.90;;;;;;4102404;29;20109;-84
2022/07/21 10:06:38;;;;;;;34.20;19.35;;;22.40;99.90;;;;;;4101279;29;20059;-84
2022/07/21 10:08:42;;;;;;;30.70;19.90;;;22.50;99.90;;;;;;4101010;29;20076;-84
2022/07/21 10:10:43;;;;;;;34.42;19.17;;;22.50;99.90;;;;;;4085178;29;20048;-84
2022/07/21 10:12:45;;;;;;;31.92;20.52;;;22.60;99.90;;;;;;4101993;29;20524;-84
2022/07/21 10:14:47;;;;;;;30.48;18.35;;;22.70;99.90;;;;;;4084481;29;20492;-84
2022/07/21 10:16:48;;;;;;;29.33;16.95;;;22.90;99.90;;;;;;4100864;29;20054;-84
2022/07/21 10:18:54;;;;;;;29.40;17.88;;;23.00;99.90;;;;;;4100754;29;20516;-84
2022/07/21 10:21:05;;;;;;;27.38;16.60;;;23.40;99.90;;;;;;4084115;29;20051;-84
2022/07/21 10:23:16;;;;;;;30.70;18.02;;;23.70;99.90;;;;;;4084320;29;20225;-84
2022/07/21 10:25:18;;;;;;;28.42;18.08;;;23.90;99.90;;;;;;4101443;29;20051;-84